Latest Weather Observations for Cairns

IDQ60801

Issued at 11:32 pm EST Thursday 29 September 2016 (issued every 30 minutes, with the page automatically refreshed every 10 minutes)

About weather observations | Map of weather stations | Latest weather observations for QLD | Other Formats
Station Details ID: 031011 Name: CAIRNS AERO Lat: -16.87 Lon: 145.75 Height: 2.22 m
Data from the previous 72 hours. | See also: Recent months at Cairns
Date/Time
EST
Temp
°C
App
Temp
°C
Dew
Point
°C
Rel
Hum
%
Delta-T
°C
Wind Press
QNH
hPa
Press
MSL
hPa
Rain since
9am
mm
Dir  Spd
km/h
Gust
km/h
Spd
kts
Gust
kts
29/11:00pm 26.3 28.3 22.2 78 2.8 NNW 15 19 8 10 1011.0 1011.0 0.0
29/10:30pm 26.3 27.7 21.9 77 2.9 N 17 22 9 12 1011.1 1011.1 0.0
29/10:00pm 26.4 28.2 21.8 76 3.1 N 15 22 8 12 1011.1 1011.1 0.0
29/09:30pm 26.4 28.3 22.0 77 2.9 N 15 20 8 11 1010.9 1010.9 0.0
29/09:00pm 26.3 28.5 21.9 77 2.9 NNW 13 20 7 11 1010.7 1010.7 0.0
29/08:30pm 26.2 27.9 21.6 76 3.1 N 15 19 8 10 1010.4 1010.4 0.0
29/08:00pm 26.1 27.7 21.5 76 3.1 NNW 15 19 8 10 1009.8 1009.8 0.0
29/07:30pm 26.0 28.1 21.7 77 2.9 NNW 13 19 7 10 1009.3 1009.3 0.0
29/07:00pm 26.4 28.1 21.6 75 3.2 NNW 15 20 8 11 1009.0 1009.0 0.0
29/06:30pm 26.5 28.3 21.9 76 3.1 NNW 15 19 8 10 1008.5 1008.5 0.0
29/06:00pm 26.6 28.1 22.0 76 3.1 NNW 17 24 9 13 1008.2 1008.2 0.0
29/05:30pm 26.8 27.9 22.0 75 3.2 N 19 24 10 13 1008.0 1008.0 0.0
29/05:00pm 27.2 28.6 21.9 73 3.6 N 17 26 9 14 1007.8 1007.8 0.0
29/04:30pm 27.2 28.0 21.7 72 3.7 N 20 28 11 15 1007.7 1007.7 0.0
29/04:00pm 28.0 28.4 21.8 69 4.2 N 22 30 12 16 1007.5 1007.5 0.0
29/03:30pm 28.1 28.7 22.1 70 4.0 N 22 32 12 17 1007.4 1007.4 0.0
29/03:00pm 28.3 29.1 21.8 68 4.4 N 20 32 11 17 1007.7 1007.7 0.0
29/02:30pm 28.5 29.4 22.0 68 4.4 N 20 32 11 17 1007.9 1007.9 0.0
29/02:00pm 29.0 29.8 22.5 68 4.4 N 22 30 12 16 1008.2 1008.2 0.0
29/01:30pm 29.3 30.0 22.3 66 4.7 N 22 30 12 16 1008.7 1008.7 0.0
29/01:00pm 28.3 29.0 22.3 70 4.1 N 22 30 12 16 1009.2 1009.2 0.0
29/12:30pm 28.9 29.9 22.9 70 4.1 N 22 32 12 17 1009.8 1009.8 0.0
29/12:00pm 29.4 30.7 22.6 67 4.6 N 20 30 11 16 1010.4 1010.4 0.0
29/11:30am 28.5 28.9 21.8 67 4.5 N 22 30 12 16 1011.0 1011.0 0.0
29/11:00am 27.9 29.3 22.6 73 3.6 N 19 26 10 14 1011.4 1011.4 0.0
29/10:30am 27.1 28.9 21.8 73 3.5 N 15 20 8 11 1011.6 1011.6 0.0
29/10:00am 27.8 28.7 21.6 69 4.1 N 19 26 10 14 1011.8 1011.8 0.0
29/09:30am 27.0 28.2 21.5 72 3.7 N 17 24 9 13 1011.9 1011.9 0.0
29/09:00am 27.4 29.0 21.4 70 4.0 N 15 20 8 11 1011.9 1011.9 0.0
29/08:30am 26.1 29.3 21.7 77 2.9 NW 7 11 4 6 1012.1 1012.1 0.0
29/08:00am 26.6 29.4 21.6 74 3.3 NNE 9 13 5 7 1012.0 1012.0 0.0
29/07:30am 25.8 30.6 22.1 80 2.5 CALM 0 7 0 4 1011.7 1011.7 0.0
29/07:00am 25.4 28.7 21.9 81 2.3 WNW 7 9 4 5 1011.2 1011.2 0.0
29/06:30am 24.5 28.1 22.0 86 1.7 W 6 9 3 5 1010.8 1010.8 0.0
29/06:00am 24.1 28.6 21.6 86 1.7 CALM 0 6 0 3 1010.5 1010.5 0.0
29/05:30am 23.3 27.8 21.6 90 1.1 CALM 0 0 0 0 1010.4 1010.4 0.0
29/05:00am 24.9 28.3 21.6 82 2.2 WNW 6 7 3 4 1010.4 1010.4 0.0
29/04:30am 25.2 28.5 21.5 80 2.5 W 6 9 3 5 1010.3 1010.3 0.0
29/04:00am 24.9 28.2 21.4 81 2.3 WSW 6 9 3 5 1010.1 1010.1 0.0
29/03:30am 24.4 27.5 21.5 84 1.9 W 7 9 4 5 1009.9 1009.9 0.0
29/03:00am 24.3 27.7 21.6 85 1.8 WNW 6 7 3 4 1010.0 1010.0 0.0
29/02:30am 24.5 28.3 21.6 84 1.9 W 4 9 2 5 1010.5 1010.5 0.0
29/02:00am 24.3 28.4 21.6 85 1.8 WNW 2 9 1 5 1010.8 1010.8 0.0
29/01:30am 24.3 27.6 21.4 84 1.9 WNW 6 11 3 6 1011.4 1011.4 0.0
29/01:00am 24.5 27.0 21.0 81 2.3 N 9 13 5 7 1011.8 1011.8 0.0
29/12:30am 25.5 27.8 21.4 78 2.7 N 11 17 6 9 1012.1 1012.1 0.0
29/12:00am 25.8 28.0 21.2 76 3.0 NNE 11 17 6 9 1012.5 1012.5 0.0
 
Date/Time
EST
Temp
°C
App
Temp
°C
Dew
Point
°C
Rel
Hum
%
Delta-T
°C
Wind Press
QNH
hPa
Press
MSL
hPa
Rain since
9am
mm
Dir  Spd
km/h
Gust
km/h
Spd
kts
Gust
kts
28/11:30pm 25.8 28.2 21.5 77 2.9 NNE 11 15 6 8 1012.6 1012.6 0.0
28/11:00pm 25.6 28.0 21.5 78 2.7 NNE 11 15 6 8 1012.8 1012.8 0.0
28/10:30pm 25.7 28.0 22.0 80 2.5 ENE 13 19 7 10 1012.9 1012.9 0.0
28/10:00pm 25.9 28.6 21.3 76 3.0 E 9 11 5 6 1012.6 1012.6 0.0
28/09:30pm 25.7 28.0 21.4 77 2.8 E 11 15 6 8 1012.3 1012.3 0.0
28/09:00pm 25.6 28.0 21.5 78 2.7 ESE 11 13 6 7 1011.9 1011.9 0.0
28/08:30pm 25.8 27.8 21.5 77 2.9 ESE 13 17 7 9 1011.7 1011.7 0.0
28/08:00pm 25.9 27.9 21.6 77 2.9 ESE 13 17 7 9 1011.5 1011.5 0.0
28/07:30pm 26.0 28.6 21.9 78 2.7 E 11 15 6 8 1011.3 1011.3 0.0
28/07:00pm 26.1 28.1 21.5 76 3.1 ENE 13 19 7 10 1011.1 1011.1 0.0
28/06:30pm 26.2 27.6 21.0 73 3.4 ENE 15 20 8 11 1011.0 1011.0 0.0
28/06:00pm 26.4 27.6 21.4 74 3.3 ENE 17 24 9 13 1010.8 1010.8 0.0
28/05:30pm 27.0 28.2 21.5 72 3.7 ENE 17 22 9 12 1010.6 1010.6 0.0
28/05:00pm 27.5 28.6 22.0 72 3.7 ENE 19 26 10 14 1010.3 1010.3 0.0
28/04:30pm 28.2 29.4 22.2 70 4.0 NE 19 26 10 14 1010.1 1010.1 0.0
28/04:00pm 28.3 29.3 21.8 68 4.4 NE 19 26 10 14 1010.1 1010.1 0.0
28/03:30pm 28.6 29.7 21.9 67 4.5 ENE 19 24 10 13 1010.1 1010.1 0.0
28/03:00pm 29.1 30.8 23.1 70 4.1 NE 19 26 10 14 1010.3 1010.3 0.0
28/02:30pm 29.1 30.3 22.1 66 4.7 NE 19 28 10 15 1010.6 1010.6 0.0
28/02:00pm 28.8 30.0 22.5 68 4.3 NE 20 37 11 20 1010.8 1010.8 0.0
28/01:30pm 29.4 30.7 22.6 67 4.6 NE 20 28 11 15 1011.1 1011.1 0.0
28/01:00pm 29.1 30.4 22.3 66 4.6 NE 19 26 10 14 1011.5 1011.5 0.0
28/12:30pm 28.7 29.9 22.2 68 4.4 NE 19 30 10 16 1012.0 1012.0 0.0
28/12:00pm 29.2 30.8 22.2 66 4.7 NE 17 28 9 15 1012.6 1012.6 0.0
28/11:30am 29.5 31.4 22.7 67 4.6 NE 17 30 9 16 1013.1 1013.1 0.0
28/11:00am 28.7 30.7 22.2 68 4.4 NE 15 20 8 11 1013.6 1013.6 0.0
28/10:30am 28.4 30.6 22.6 71 3.9 NE 15 20 8 11 1014.0 1014.0 0.0
28/10:00am 28.6 30.3 21.6 66 4.7 NE 15 19 8 10 1014.2 1014.2 0.0
28/09:30am 29.3 31.6 21.3 62 5.3 ENE 11 15 6 8 1014.1 1014.1 0.0
28/09:00am 27.9 31.0 21.4 67 4.3 SE 7 13 4 7 1014.0 1014.0 0.0
28/08:30am 26.9 29.7 21.6 72 3.5 S 9 11 5 6 1013.9 1013.9 0.0
28/08:00am 27.0 29.5 22.4 76 3.1 SE 13 15 7 8 1013.8 1013.8 0.0
28/07:30am 25.6 28.4 22.3 82 2.2 SE 11 15 6 8 1013.5 1013.5 0.0
28/07:00am 23.9 28.4 22.2 90 1.1 W 2 6 1 3 1013.0 1013.0 0.0
28/06:30am 23.1 26.5 21.7 92 0.9 SSE 6 9 3 5 1012.7 1012.7 0.0
28/06:00am 22.9 25.4 21.7 93 0.8 SSE 11 15 6 8 1012.5 1012.5 0.0
28/05:30am 22.2 26.6 21.4 95 0.5 CALM 0 0 0 0 1012.3 1012.3 0.0
28/05:00am 22.6 26.4 21.6 94 0.7 W 4 9 2 5 1011.8 1011.8 0.0
28/04:30am 23.3 25.4 21.7 91 1.1 SE 13 17 7 9 1011.7 1011.7 0.0
28/04:00am 23.4 26.9 21.8 91 1.1 SSE 6 9 3 5 1011.6 1011.6 0.0
28/03:30am 23.5 25.9 21.6 89 1.3 SSE 11 17 6 9 1011.6 1011.6 0.0
28/03:00am 23.5 27.5 22.1 92 0.9 SW 4 13 2 7 1011.6 1011.6 0.0
28/02:30am 24.0 26.8 22.3 90 1.1 SE 11 15 6 8 1011.6 1011.6 0.0
28/02:00am 24.2 26.7 22.5 90 1.1 SSE 13 17 7 9 1012.0 1012.0 0.0
28/01:30am 22.9 27.4 22.2 96 0.5 SW 2 7 1 4 1012.3 1012.3 0.0
28/01:00am 22.8 27.6 22.1 96 0.5 CALM 0 0 0 0 1012.7 1012.7 0.0
28/12:30am 22.8 27.5 22.0 95 0.5 CALM 0 0 0 0 1013.0 1013.0 0.0
28/12:00am 23.3 28.1 22.1 93 0.8 CALM 0 0 0 0 1013.3 1013.3 0.0
 
Date/Time
EST
Temp
°C
App
Temp
°C
Dew
Point
°C
Rel
Hum
%
Delta-T
°C
Wind Press
QNH
hPa
Press
MSL
hPa
Rain since
9am
mm
Dir  Spd
km/h
Gust
km/h
Spd
kts
Gust
kts
27/11:30pm 23.6 28.4 22.2 92 0.9 CALM 0 0 0 0 1013.5 1013.5 0.0
27/11:00pm 23.9 28.6 22.0 89 1.3 CALM 0 0 0 0 1013.6 1013.6 0.0
27/10:30pm 24.3 29.0 22.0 87 1.5 CALM 0 0 0 0 1013.5 1013.5 0.0
27/10:00pm 25.1 28.7 22.4 85 1.8 S 7 11 4 6 1013.4 1013.4 0.0
27/09:30pm 25.2 28.5 22.5 85 1.8 S 9 13 5 7 1013.4 1013.4 0.0
27/09:00pm 25.1 28.2 22.2 84 1.9 SSE 9 13 5 7 1013.1 1013.1 0.0
27/08:30pm 25.3 28.5 22.4 84 1.9 S 9 13 5 7 1012.8 1012.8 0.0
27/08:00pm 25.6 29.3 22.3 82 2.2 SSW 6 9 3 5 1012.7 1012.7 0.0
27/07:30pm 25.6 30.4 22.1 81 2.3 CALM 0 6 0 3 1012.3 1012.3 0.0
27/07:00pm 25.8 28.8 21.9 79 2.6 SSE 9 13 5 7 1011.9 1011.9 0.0
27/06:30pm 26.8 30.3 21.8 74 3.3 ESE 6 15 3 8 1011.4 1011.4 0.0
27/06:00pm 27.4 29.3 22.1 73 3.6 E 15 20 8 11 1010.9 1010.9 0.0
27/05:30pm 27.9 29.1 22.2 71 3.8 E 19 24 10 13 1010.5 1010.5 0.0
27/05:00pm 28.6 29.2 22.1 68 4.4 ENE 22 28 12 15 1010.3 1010.3 0.0
27/04:30pm 29.5 30.0 22.0 64 5.1 ENE 22 30 12 16 1010.2 1010.2 0.0
27/04:00pm 28.8 30.6 23.2 71 3.8 NE 19 26 10 14 1010.2 1010.2 0.0
27/03:30pm 28.8 30.4 22.8 70 4.1 NE 19 26 10 14 1010.3 1010.3 0.0
27/03:00pm 30.0 31.3 22.7 65 5.0 NE 20 28 11 15 1010.3 1010.3 0.0
27/02:30pm 30.4 31.4 21.8 60 5.8 NE 19 28 10 15 1010.3 1010.3 0.0
27/02:00pm 30.1 30.4 21.5 60 5.8 NE 22 32 12 17 1010.8 1010.8 0.0
27/01:30pm 30.5 31.5 22.1 61 5.7 ENE 20 28 11 15 1011.5 1011.5 0.0
27/01:00pm 30.5 31.5 22.1 61 5.7 ENE 20 28 11 15 1012.0 1012.0 0.0
27/12:30pm 30.0 31.3 22.7 65 5.0 ENE 20 28 11 15 1012.5 1012.5 0.0
27/12:00pm 29.8 30.8 22.8 66 4.8 NE 22 28 12 15 1013.0 1013.0 0.0
27/11:30am 29.8 31.2 22.8 66 4.8 NE 20 28 11 15 1013.4 1013.4 0.0
27/11:00am 29.2 30.6 21.9 64 4.9 NE 17 26 9 14 1013.6 1013.6 0.0
27/10:30am 30.3 32.2 21.4 59 6.0 ENE 13 19 7 10 1013.8 1013.8 0.0
27/10:00am 29.2 31.4 21.2 62 5.3 ESE 11 19 6 10 1014.3 1014.3 0.0
27/09:30am 28.7 30.8 21.7 66 4.7 SSE 13 17 7 9 1014.5 1014.5 0.0
27/09:00am 28.3 30.8 21.8 68 4.4 SSE 11 17 6 9 1014.8 1014.8 0.0
27/08:30am 26.9 28.2 21.6 72 3.5 SE 17 19 9 10 1014.7 1014.7 0.0
27/08:00am 25.8 26.8 21.7 78 2.7 SE 19 20 10 11 1014.4 1014.4 0.0
27/07:30am 24.6 25.8 21.5 83 2.1 SSE 17 19 9 10 1014.1 1014.1 0.0
27/07:00am 23.9 28.4 22.2 90 1.1 SW 2 9 1 5 1013.7 1013.7 0.0
27/06:30am 22.0 26.5 21.5 97 0.3 CALM 0 0 0 0 1013.3 1013.3 0.0
27/06:00am 21.4 25.5 20.7 96 0.5 CALM 0 0 0 0 1013.1 1013.1 0.0
27/05:30am 22.3 25.9 21.3 94 0.7 W 4 7 2 4 1012.9 1012.9 0.0
27/05:00am 23.0 24.4 21.1 89 1.2 SE 15 17 8 9 1012.9 1012.9 0.0
27/04:30am 23.1 24.0 21.5 91 1.1 SE 19 22 10 12 1012.6 1012.6 0.0
27/04:00am 22.9 26.4 22.1 95 0.5 ESE 7 17 4 9 1012.3 1012.3 0.0
27/03:30am 22.5 27.1 21.8 96 0.5 CALM 0 0 0 0 1012.1 1012.1 0.0
27/03:00am 23.0 27.6 21.8 93 0.8 CALM 0 0 0 0 1012.2 1012.2 0.0
27/02:30am 23.9 25.9 22.3 91 1.1 SE 15 17 8 9 1012.5 1012.5 0.0
27/02:00am 23.9 28.4 22.9 94 0.7 SSW 4 17 2 9 1012.6 1012.6 0.0
27/01:30am 22.9 27.7 22.1 95 0.5 CALM 0 0 0 0 1012.7 1012.7 0.0
27/01:00am 23.3 28.3 22.5 95 0.5 CALM 0 0 0 0 1012.9 1012.9 0.0
27/12:30am 23.9 28.9 22.5 92 0.9 CALM 0 0 0 0 1013.2 1013.2 0.0
27/12:00am 24.7 28.7 22.8 89 1.3 WNW 6 7 3 4 1013.4 1013.4 0.0

Other Formats:

Comma delimited format used in spreadsheet applications
http://www.bom.gov.au/fwo/IDQ60801/IDQ60801.94287.axf

JavaScript Object Notation format (JSON) in row-major order
http://www.bom.gov.au/fwo/IDQ60801/IDQ60801.94287.json